sensor_id;sensor_type;location;lat;lon;timestamp;temperature;humidity
67050;DHT22;53955;52.442;13.284;2023-04-03T00:00:34;4.50;49.20
67050;DHT22;53955;52.442;13.284;2023-04-03T00:03:01;4.30;48.60
67050;DHT22;53955;52.442;13.284;2023-04-03T00:05:27;4.50;48.60
67050;DHT22;53955;52.442;13.284;2023-04-03T00:07:54;4.30;48.50
67050;DHT22;53955;52.442;13.284;2023-04-03T00:10:22;4.50;48.60
67050;DHT22;53955;52.442;13.284;2023-04-03T00:12:48;4.40;48.80
67050;DHT22;53955;52.442;13.284;2023-04-03T00:15:15;4.60;48.00
67050;DHT22;53955;52.442;13.284;2023-04-03T00:17:42;4.40;48.30
67050;DHT22;53955;52.442;13.284;2023-04-03T00:20:09;4.40;48.10
67050;DHT22;53955;52.442;13.284;2023-04-03T00:22:35;4.50;47.90
67050;DHT22;53955;52.442;13.284;2023-04-03T00:25:02;4.50;48.10
67050;DHT22;53955;52.442;13.284;2023-04-03T00:27:30;4.30;47.90
67050;DHT22;53955;52.442;13.284;2023-04-03T00:29:57;4.60;47.80
67050;DHT22;53955;52.442;13.284;2023-04-03T00:32:23;4.50;47.90
67050;DHT22;53955;52.442;13.284;2023-04-03T00:34:50;4.60;47.90
67050;DHT22;53955;52.442;13.284;2023-04-03T00:37:16;4.40;47.10
67050;DHT22;53955;52.442;13.284;2023-04-03T00:39:43;4.60;46.70
67050;DHT22;53955;52.442;13.284;2023-04-03T00:42:10;4.50;46.50
67050;DHT22;53955;52.442;13.284;2023-04-03T00:47:44;4.60;47.00
67050;DHT22;53955;52.442;13.284;2023-04-03T00:50:11;4.60;46.70
67050;DHT22;53955;52.442;13.284;2023-04-03T00:52:38;4.70;47.10
67050;DHT22;53955;52.442;13.284;2023-04-03T00:55:08;4.70;47.40
67050;DHT22;53955;52.442;13.284;2023-04-03T00:57:35;4.70;47.00
67050;DHT22;53955;52.442;13.284;2023-04-03T01:00:05;4.40;47.20
67050;DHT22;53955;52.442;13.284;2023-04-03T01:02:33;4.50;46.90
67050;DHT22;53955;52.442;13.284;2023-04-03T01:05:01;4.50;47.10
67050;DHT22;53955;52.442;13.284;2023-04-03T01:07:29;4.50;46.90
67050;DHT22;53955;52.442;13.284;2023-04-03T01:09:58;4.60;46.90
67050;DHT22;53955;52.442;13.284;2023-04-03T01:12:27;4.40;46.90
67050;DHT22;53955;52.442;13.284;2023-04-03T01:14:56;4.50;47.00
67050;DHT22;53955;52.442;13.284;2023-04-03T01:17:31;4.50;46.90
67050;DHT22;53955;52.442;13.284;2023-04-03T01:20:39;4.60;47.20
67050;DHT22;53955;52.442;13.284;2023-04-03T01:23:25;4.60;46.80
67050;DHT22;53955;52.442;13.284;2023-04-03T01:25:56;4.40;47.60
67050;DHT22;53955;52.442;13.284;2023-04-03T01:28:25;4.50;47.00
67050;DHT22;53955;52.442;13.284;2023-04-03T01:30:58;4.50;47.00
67050;DHT22;53955;52.442;13.284;2023-04-03T01:33:28;4.70;47.30
67050;DHT22;53955;52.442;13.284;2023-04-03T01:35:55;4.70;47.40
67050;DHT22;53955;52.442;13.284;2023-04-03T01:38:22;4.50;47.40
67050;DHT22;53955;52.442;13.284;2023-04-03T01:40:48;4.60;47.20
67050;DHT22;53955;52.442;13.284;2023-04-03T01:43:15;4.60;47.90
67050;DHT22;53955;52.442;13.284;2023-04-03T01:45:42;4.60;47.40
67050;DHT22;53955;52.442;13.284;2023-04-03T01:48:08;4.50;47.10
67050;DHT22;53955;52.442;13.284;2023-04-03T01:50:36;4.50;47.40
67050;DHT22;53955;52.442;13.284;2023-04-03T01:53:03;4.60;47.40
67050;DHT22;53955;52.442;13.284;2023-04-03T01:55:29;4.60;47.20
67050;DHT22;53955;52.442;13.284;2023-04-03T01:57:56;4.40;47.10
67050;DHT22;53955;52.442;13.284;2023-04-03T02:00:22;4.50;47.70
67050;DHT22;53955;52.442;13.284;2023-04-03T02:02:49;4.70;47.80
67050;DHT22;53955;52.442;13.284;2023-04-03T02:05:16;4.50;48.00
67050;DHT22;53955;52.442;13.284;2023-04-03T02:07:44;4.70;47.40
67050;DHT22;53955;52.442;13.284;2023-04-03T02:10:11;4.50;47.80
67050;DHT22;53955;52.442;13.284;2023-04-03T02:12:37;4.60;47.70
67050;DHT22;53955;52.442;13.284;2023-04-03T02:15:05;4.50;48.20
67050;DHT22;53955;52.442;13.284;2023-04-03T02:17:32;4.50;48.10
67050;DHT22;53955;52.442;13.284;2023-04-03T02:19:58;4.50;48.50
67050;DHT22;53955;52.442;13.284;2023-04-03T02:22:25;4.60;48.10
67050;DHT22;53955;52.442;13.284;2023-04-03T02:24:53;4.40;48.80
67050;DHT22;53955;52.442;13.284;2023-04-03T02:27:20;4.50;48.10
67050;DHT22;53955;52.442;13.284;2023-04-03T02:29:46;4.40;48.70
67050;DHT22;53955;52.442;13.284;2023-04-03T02:32:13;4.60;48.90
67050;DHT22;53955;52.442;13.284;2023-04-03T02:34:40;4.50;49.50
67050;DHT22;53955;52.442;13.284;2023-04-03T02:37:06;4.40;48.90
67050;DHT22;53955;52.442;13.284;2023-04-03T02:39:33;4.40;48.60
67050;DHT22;53955;52.442;13.284;2023-04-03T02:42:01;4.50;48.90
67050;DHT22;53955;52.442;13.284;2023-04-03T02:44:28;4.50;48.90
67050;DHT22;53955;52.442;13.284;2023-04-03T02:46:54;4.50;49.20
67050;DHT22;53955;52.442;13.284;2023-04-03T02:49:21;4.60;48.90
67050;DHT22;53955;52.442;13.284;2023-04-03T02:51:48;4.70;49.10
67050;DHT22;53955;52.442;13.284;2023-04-03T02:54:14;4.50;49.20
67050;DHT22;53955;52.442;13.284;2023-04-03T02:56:41;4.40;49.50
67050;DHT22;53955;52.442;13.284;2023-04-03T02:59:09;4.40;49.20
67050;DHT22;53955;52.442;13.284;2023-04-03T03:01:35;4.30;49.60
67050;DHT22;53955;52.442;13.284;2023-04-03T03:04:02;4.30;49.20
67050;DHT22;53955;52.442;13.284;2023-04-03T03:06:28;4.40;49.10
67050;DHT22;53955;52.442;13.284;2023-04-03T03:08:55;4.50;49.40
67050;DHT22;53955;52.442;13.284;2023-04-03T03:11:22;4.40;49.60
67050;DHT22;53955;52.442;13.284;2023-04-03T03:13:48;4.40;49.80
67050;DHT22;53955;52.442;13.284;2023-04-03T03:16:16;4.40;49.40
67050;DHT22;53955;52.442;13.284;2023-04-03T03:18:43;4.40;49.20
67050;DHT22;53955;52.442;13.284;2023-04-03T03:21:10;4.30;49.80
67050;DHT22;53955;52.442;13.284;2023-04-03T03:23:37;4.20;50.00
67050;DHT22;53955;52.442;13.284;2023-04-03T03:26:04;4.20;50.70
67050;DHT22;53955;52.442;13.284;2023-04-03T03:28:31;4.30;50.30
67050;DHT22;53955;52.442;13.284;2023-04-03T03:30:58;4.20;50.60
67050;DHT22;53955;52.442;13.284;2023-04-03T03:33:27;4.30;50.30
67050;DHT22;53955;52.442;13.284;2023-04-03T03:35:54;4.20;58.80
67050;DHT22;53955;52.442;13.284;2023-04-03T03:38:21;4.20;50.90
67050;DHT22;53955;52.442;13.284;2023-04-03T03:40:48;4.30;50.70
67050;DHT22;53955;52.442;13.284;2023-04-03T03:43:15;4.40;50.70
67050;DHT22;53955;52.442;13.284;2023-04-03T03:45:42;4.10;51.00
67050;DHT22;53955;52.442;13.284;2023-04-03T03:48:09;3.90;50.90
67050;DHT22;53955;52.442;13.284;2023-04-03T03:50:37;4.00;51.40
67050;DHT22;53955;52.442;13.284;2023-04-03T03:53:03;4.20;51.30
67050;DHT22;53955;52.442;13.284;2023-04-03T03:55:30;3.90;51.30
67050;DHT22;53955;52.442;13.284;2023-04-03T03:57:57;3.90;51.50
67050;DHT22;53955;52.442;13.284;2023-04-03T04:00:23;4.00;52.00
67050;DHT22;53955;52.442;13.284;2023-04-03T04:02:50;3.90;51.60
67050;DHT22;53955;52.442;13.284;2023-04-03T04:05:17;4.00;51.50
67050;DHT22;53955;52.442;13.284;2023-04-03T04:07:45;4.00;51.00
67050;DHT22;53955;52.442;13.284;2023-04-03T04:10:11;3.90;52.00
67050;DHT22;53955;52.442;13.284;2023-04-03T04:12:39;3.80;51.50
67050;DHT22;53955;52.442;13.284;2023-04-03T04:15:06;3.80;51.80
67050;DHT22;53955;52.442;13.284;2023-04-03T04:17:33;3.80;51.70
67050;DHT22;53955;52.442;13.284;2023-04-03T04:20:00;3.80;51.90
67050;DHT22;53955;52.442;13.284;2023-04-03T04:22:27;3.70;52.00
67050;DHT22;53955;52.442;13.284;2023-04-03T04:24:55;3.60;52.50
67050;DHT22;53955;52.442;13.284;2023-04-03T04:27:22;3.90;51.70
67050;DHT22;53955;52.442;13.284;2023-04-03T04:29:49;3.70;52.30
67050;DHT22;53955;52.442;13.284;2023-04-03T04:32:15;3.40;52.10
67050;DHT22;53955;52.442;13.284;2023-04-03T04:34:42;3.60;52.70
67050;DHT22;53955;52.442;13.284;2023-04-03T04:37:08;3.70;52.50
67050;DHT22;53955;52.442;13.284;2023-04-03T04:39:35;3.60;52.30
67050;DHT22;53955;52.442;13.284;2023-04-03T04:42:03;3.70;52.30
67050;DHT22;53955;52.442;13.284;2023-04-03T04:44:29;3.60;52.20
67050;DHT22;53955;52.442;13.284;2023-04-03T04:46:56;3.80;51.70
67050;DHT22;53955;52.442;13.284;2023-04-03T04:49:22;3.70;52.40
67050;DHT22;53955;52.442;13.284;2023-04-03T04:51:49;3.80;52.70
67050;DHT22;53955;52.442;13.284;2023-04-03T04:54:16;3.80;52.00
67050;DHT22;53955;52.442;13.284;2023-04-03T04:56:42;3.90;52.60
67050;DHT22;53955;52.442;13.284;2023-04-03T04:59:10;3.70;52.20
67050;DHT22;53955;52.442;13.284;2023-04-03T05:01:37;3.80;52.80
67050;DHT22;53955;52.442;13.284;2023-04-03T05:04:04;3.60;52.30
67050;DHT22;53955;52.442;13.284;2023-04-03T05:06:30;3.90;52.30
67050;DHT22;53955;52.442;13.284;2023-04-03T05:08:57;4.00;52.30
67050;DHT22;53955;52.442;13.284;2023-04-03T05:11:24;4.00;52.40
67050;DHT22;53955;52.442;13.284;2023-04-03T05:13:51;3.90;51.70
67050;DHT22;53955;52.442;13.284;2023-04-03T05:16:19;4.10;51.90
67050;DHT22;53955;52.442;13.284;2023-04-03T05:18:45;4.00;52.10
67050;DHT22;53955;52.442;13.284;2023-04-03T05:21:12;4.20;51.90
67050;DHT22;53955;52.442;13.284;2023-04-03T05:23:38;4.30;51.80
67050;DHT22;53955;52.442;13.284;2023-04-03T05:26:05;4.30;51.70
67050;DHT22;53955;52.442;13.284;2023-04-03T05:28:32;4.20;51.20
67050;DHT22;53955;52.442;13.284;2023-04-03T05:30:59;4.10;52.00
67050;DHT22;53955;52.442;13.284;2023-04-03T05:33:27;4.30;51.70
67050;DHT22;53955;52.442;13.284;2023-04-03T05:35:54;4.30;51.50
67050;DHT22;53955;52.442;13.284;2023-04-03T05:38:20;4.30;51.40
67050;DHT22;53955;52.442;13.284;2023-04-03T05:40:47;4.40;52.80
67050;DHT22;53955;52.442;13.284;2023-04-03T05:43:14;4.60;52.10
67050;DHT22;53955;52.442;13.284;2023-04-03T05:45:40;5.80;51.00
67050;DHT22;53955;52.442;13.284;2023-04-03T05:48:07;8.60;44.60
67050;DHT22;53955;52.442;13.284;2023-04-03T05:50:35;12.00;37.40
67050;DHT22;53955;52.442;13.284;2023-04-03T05:53:07;14.50;29.90
67050;DHT22;53955;52.442;13.284;2023-04-03T05:55:37;16.40;25.90
67050;DHT22;53955;52.442;13.284;2023-04-03T05:58:03;18.00;22.80
67050;DHT22;53955;52.442;13.284;2023-04-03T06:00:30;18.60;20.60
67050;DHT22;53955;52.442;13.284;2023-04-03T06:02:57;19.20;19.30
67050;DHT22;53955;52.442;13.284;2023-04-03T06:05:23;20.20;17.80
67050;DHT22;53955;52.442;13.284;2023-04-03T06:07:51;21.50;15.20
67050;DHT22;53955;52.442;13.284;2023-04-03T06:10:18;22.20;13.70
67050;DHT22;53955;52.442;13.284;2023-04-03T06:12:45;22.40;13.40
67050;DHT22;53955;52.442;13.284;2023-04-03T06:15:12;23.30;12.10
67050;DHT22;53955;52.442;13.284;2023-04-03T06:17:38;23.20;12.20
67050;DHT22;53955;52.442;13.284;2023-04-03T06:20:06;23.60;11.90
67050;DHT22;53955;52.442;13.284;2023-04-03T06:22:33;24.00;10.60
67050;DHT22;53955;52.442;13.284;2023-04-03T06:25:01;24.20;10.70
67050;DHT22;53955;52.442;13.284;2023-04-03T06:27:27;24.80;10.10
67050;DHT22;53955;52.442;13.284;2023-04-03T06:29:54;25.00;8.40
67050;DHT22;53955;52.442;13.284;2023-04-03T06:32:21;24.90;8.90
67050;DHT22;53955;52.442;13.284;2023-04-03T06:34:47;25.10;8.90
67050;DHT22;53955;52.442;13.284;2023-04-03T06:37:20;24.60;8.50
67050;DHT22;53955;52.442;13.284;2023-04-03T06:39:48;25.70;7.70
67050;DHT22;53955;52.442;13.284;2023-04-03T06:42:16;25.70;7.60
67050;DHT22;53955;52.442;13.284;2023-04-03T06:44:42;26.20;6.90
67050;DHT22;53955;52.442;13.284;2023-04-03T06:47:11;25.70;7.20
67050;DHT22;53955;52.442;13.284;2023-04-03T06:49:37;26.00;6.70
67050;DHT22;53955;52.442;13.284;2023-04-03T06:52:04;25.80;6.10
67050;DHT22;53955;52.442;13.284;2023-04-03T06:54:31;25.80;5.80
67050;DHT22;53955;52.442;13.284;2023-04-03T06:56:58;24.20;6.90
67050;DHT22;53955;52.442;13.284;2023-04-03T06:59:26;23.80;7.20
67050;DHT22;53955;52.442;13.284;2023-04-03T07:01:53;24.50;6.50
67050;DHT22;53955;52.442;13.284;2023-04-03T07:04:20;24.70;5.90
67050;DHT22;53955;52.442;13.284;2023-04-03T07:06:46;24.20;5.70
67050;DHT22;53955;52.442;13.284;2023-04-03T07:09:13;23.10;6.70
67050;DHT22;53955;52.442;13.284;2023-04-03T07:11:40;22.70;7.20
67050;DHT22;53955;52.442;13.284;2023-04-03T07:14:07;21.80;7.60
67050;DHT22;53955;52.442;13.284;2023-04-03T07:16:35;19.90;9.40
67050;DHT22;53955;52.442;13.284;2023-04-03T07:19:02;17.30;13.40
67050;DHT22;53955;52.442;13.284;2023-04-03T07:21:29;16.00;15.00
67050;DHT22;53955;52.442;13.284;2023-04-03T07:23:56;14.40;18.10
67050;DHT22;53955;52.442;13.284;2023-04-03T07:26:22;13.30;20.00
67050;DHT22;53955;52.442;13.284;2023-04-03T07:28:49;12.10;22.60
67050;DHT22;53955;52.442;13.284;2023-04-03T07:31:16;11.70;24.20
67050;DHT22;53955;52.442;13.284;2023-04-03T07:33:45;12.30;24.80
67050;DHT22;53955;52.442;13.284;2023-04-03T07:36:17;12.80;21.60
67050;DHT22;53955;52.442;13.284;2023-04-03T07:38:44;13.00;21.70
67050;DHT22;53955;52.442;13.284;2023-04-03T07:41:12;12.80;20.30
67050;DHT22;53955;52.442;13.284;2023-04-03T07:43:40;11.40;22.60
67050;DHT22;53955;52.442;13.284;2023-04-03T07:46:07;10.60;24.10
67050;DHT22;53955;52.442;13.284;2023-04-03T07:48:34;9.80;24.20
67050;DHT22;53955;52.442;13.284;2023-04-03T07:51:03;9.50;24.80
67050;DHT22;53955;52.442;13.284;2023-04-03T07:53:30;8.70;24.10
67050;DHT22;53955;52.442;13.284;2023-04-03T07:55:58;8.40;25.80
67050;DHT22;53955;52.442;13.284;2023-04-03T07:58:25;8.50;26.40
67050;DHT22;53955;52.442;13.284;2023-04-03T08:00:52;8.60;26.10
67050;DHT22;53955;52.442;13.284;2023-04-03T08:03:18;8.60;26.50
67050;DHT22;53955;52.442;13.284;2023-04-03T08:05:46;8.30;26.70
67050;DHT22;53955;52.442;13.284;2023-04-03T08:08:16;8.10;27.50
67050;DHT22;53955;52.442;13.284;2023-04-03T08:10:43;8.20;27.20
67050;DHT22;53955;52.442;13.284;2023-04-03T08:13:09;8.10;27.60
67050;DHT22;53955;52.442;13.284;2023-04-03T08:15:36;7.70;28.10
67050;DHT22;53955;52.442;13.284;2023-04-03T08:18:03;7.70;28.10
67050;DHT22;53955;52.442;13.284;2023-04-03T08:20:31;7.90;27.60
67050;DHT22;53955;52.442;13.284;2023-04-03T08:22:57;8.40;27.10
67050;DHT22;53955;52.442;13.284;2023-04-03T08:25:26;8.60;27.40
67050;DHT22;53955;52.442;13.284;2023-04-03T08:27:54;9.00;26.50
67050;DHT22;53955;52.442;13.284;2023-04-03T08:30:21;8.80;27.30
67050;DHT22;53955;52.442;13.284;2023-04-03T08:32:48;8.40;27.10
67050;DHT22;53955;52.442;13.284;2023-04-03T08:35:14;8.00;28.90
67050;DHT22;53955;52.442;13.284;2023-04-03T08:37:41;7.60;28.00
67050;DHT22;53955;52.442;13.284;2023-04-03T08:40:13;7.00;28.70
67050;DHT22;53955;52.442;13.284;2023-04-03T08:42:51;7.00;29.70
67050;DHT22;53955;52.442;13.284;2023-04-03T08:45:25;6.80;30.70
67050;DHT22;53955;52.442;13.284;2023-04-03T08:47:56;6.60;30.70
67050;DHT22;53955;52.442;13.284;2023-04-03T08:50:31;6.40;30.90
67050;DHT22;53955;52.442;13.284;2023-04-03T08:53:01;6.40;31.20
67050;DHT22;53955;52.442;13.284;2023-04-03T08:55:33;6.50;31.20
67050;DHT22;53955;52.442;13.284;2023-04-03T08:58:04;6.60;30.40
67050;DHT22;53955;52.442;13.284;2023-04-03T09:00:35;6.70;29.50
67050;DHT22;53955;52.442;13.284;2023-04-03T09:03:03;6.50;30.20
67050;DHT22;53955;52.442;13.284;2023-04-03T09:05:39;6.80;30.50
67050;DHT22;53955;52.442;13.284;2023-04-03T09:08:15;6.70;29.80
67050;DHT22;53955;52.442;13.284;2023-04-03T09:10:45;6.90;29.30
67050;DHT22;53955;52.442;13.284;2023-04-03T09:13:22;6.90;29.70
67050;DHT22;53955;52.442;13.284;2023-04-03T09:15:51;6.80;30.90
67050;DHT22;53955;52.442;13.284;2023-04-03T09:18:21;6.80;31.00
67050;DHT22;53955;52.442;13.284;2023-04-03T09:20:55;6.90;30.40
67050;DHT22;53955;52.442;13.284;2023-04-03T09:23:29;6.90;30.30
67050;DHT22;53955;52.442;13.284;2023-04-03T09:26:01;7.40;29.80
67050;DHT22;53955;52.442;13.284;2023-04-03T09:28:33;7.70;28.80
67050;DHT22;53955;52.442;13.284;2023-04-03T09:31:02;7.90;28.00
67050;DHT22;53955;52.442;13.284;2023-04-03T09:33:35;7.80;25.90
67050;DHT22;53955;52.442;13.284;2023-04-03T09:36:02;7.50;27.10
67050;DHT22;53955;52.442;13.284;2023-04-03T09:38:29;7.50;27.10
67050;DHT22;53955;52.442;13.284;2023-04-03T09:41:05;7.50;26.10
67050;DHT22;53955;52.442;13.284;2023-04-03T09:43:33;7.70;26.50
67050;DHT22;53955;52.442;13.284;2023-04-03T09:46:29;7.70;26.40
67050;DHT22;53955;52.442;13.284;2023-04-03T09:48:58;7.30;26.70
67050;DHT22;53955;52.442;13.284;2023-04-03T09:51:27;7.40;27.20
67050;DHT22;53955;52.442;13.284;2023-04-03T09:53:54;7.70;26.20
67050;DHT22;53955;52.442;13.284;2023-04-03T09:56:24;8.20;25.10
67050;DHT22;53955;52.442;13.284;2023-04-03T09:59:13;8.20;24.80
67050;DHT22;53955;52.442;13.284;2023-04-03T10:01:43;8.20;24.80
67050;DHT22;53955;52.442;13.284;2023-04-03T10:04:22;8.10;25.00
67050;DHT22;53955;52.442;13.284;2023-04-03T10:06:51;7.90;25.10
67050;DHT22;53955;52.442;13.284;2023-04-03T10:09:20;7.80;26.30
67050;DHT22;53955;52.442;13.284;2023-04-03T10:12:01;7.60;25.90
67050;DHT22;53955;52.442;13.284;2023-04-03T10:14:32;7.50;25.90
67050;DHT22;53955;52.442;13.284;2023-04-03T10:17:09;7.40;27.20
67050;DHT22;53955;52.442;13.284;2023-04-03T10:19:44;7.50;26.40
67050;DHT22;53955;52.442;13.284;2023-04-03T10:22:18;7.70;26.90
67050;DHT22;53955;52.442;13.284;2023-04-03T10:24:52;8.10;26.40
67050;DHT22;53955;52.442;13.284;2023-04-03T10:27:26;8.10;26.80
67050;DHT22;53955;52.442;13.284;2023-04-03T10:30:02;8.40;27.30
67050;DHT22;53955;52.442;13.284;2023-04-03T10:32:45;8.60;26.00
67050;DHT22;53955;52.442;13.284;2023-04-03T10:35:20;9.00;24.80
67050;DHT22;53955;52.442;13.284;2023-04-03T10:37:59;9.00;24.80
67050;DHT22;53955;52.442;13.284;2023-04-03T10:40:30;8.90;25.60
67050;DHT22;53955;52.442;13.284;2023-04-03T10:43:06;8.70;25.70
67050;DHT22;53955;52.442;13.284;2023-04-03T10:45:49;8.70;24.90
67050;DHT22;53955;52.442;13.284;2023-04-03T10:48:25;8.70;25.30
67050;DHT22;53955;52.442;13.284;2023-04-03T10:51:00;9.10;23.10
67050;DHT22;53955;52.442;13.284;2023-04-03T10:53:33;9.10;23.60
67050;DHT22;53955;52.442;13.284;2023-04-03T10:56:08;9.10;22.50
67050;DHT22;53955;52.442;13.284;2023-04-03T10:58:41;9.00;24.30
67050;DHT22;53955;52.442;13.284;2023-04-03T11:01:14;8.90;23.30
67050;DHT22;53955;52.442;13.284;2023-04-03T11:03:44;9.00;24.40
67050;DHT22;53955;52.442;13.284;2023-04-03T11:06:13;8.60;24.50
67050;DHT22;53955;52.442;13.284;2023-04-03T11:08:45;8.50;23.90
67050;DHT22;53955;52.442;13.284;2023-04-03T11:11:17;8.70;25.20
67050;DHT22;53955;52.442;13.284;2023-04-03T11:13:48;8.80;23.00
67050;DHT22;53955;52.442;13.284;2023-04-03T11:16:21;8.60;23.00
67050;DHT22;53955;52.442;13.284;2023-04-03T11:18:52;8.50;23.90
67050;DHT22;53955;52.442;13.284;2023-04-03T11:21:24;8.70;24.60
67050;DHT22;53955;52.442;13.284;2023-04-03T11:23:53;8.70;24.40
67050;DHT22;53955;52.442;13.284;2023-04-03T11:26:23;8.80;24.50
67050;DHT22;53955;52.442;13.284;2023-04-03T11:28:52;8.70;24.50
67050;DHT22;53955;52.442;13.284;2023-04-03T11:31:32;8.80;25.00
67050;DHT22;53955;52.442;13.284;2023-04-03T11:34:08;8.70;24.20
67050;DHT22;53955;52.442;13.284;2023-04-03T11:36:40;8.70;25.60
67050;DHT22;53955;52.442;13.284;2023-04-03T11:39:14;8.50;25.10
67050;DHT22;53955;52.442;13.284;2023-04-03T11:41:43;8.60;24.40
67050;DHT22;53955;52.442;13.284;2023-04-03T11:44:30;8.50;25.40
67050;DHT22;53955;52.442;13.284;2023-04-03T11:46:59;8.40;25.70
67050;DHT22;53955;52.442;13.284;2023-04-03T11:49:58;8.50;25.40
67050;DHT22;53955;52.442;13.284;2023-04-03T11:52:59;8.70;25.70
67050;DHT22;53955;52.442;13.284;2023-04-03T11:55:44;8.60;25.80
67050;DHT22;53955;52.442;13.284;2023-04-03T11:58:13;8.40;25.80
67050;DHT22;53955;52.442;13.284;2023-04-03T12:00:55;8.30;26.10
67050;DHT22;53955;52.442;13.284;2023-04-03T12:04:10;8.40;27.20
67050;DHT22;53955;52.442;13.284;2023-04-03T12:10:00;8.20;26.50
67050;DHT22;53955;52.442;13.284;2023-04-03T12:12:30;8.20;26.30
67050;DHT22;53955;52.442;13.284;2023-04-03T12:15:17;8.20;27.30
67050;DHT22;53955;52.442;13.284;2023-04-03T12:17:44;8.30;26.80
67050;DHT22;53955;52.442;13.284;2023-04-03T12:23:33;8.40;27.70
67050;DHT22;53955;52.442;13.284;2023-04-03T12:26:06;8.40;27.20
67050;DHT22;53955;52.442;13.284;2023-04-03T12:28:45;8.40;27.70
67050;DHT22;53955;52.442;13.284;2023-04-03T12:31:12;8.40;27.60
67050;DHT22;53955;52.442;13.284;2023-04-03T12:33:55;8.40;27.60
67050;DHT22;53955;52.442;13.284;2023-04-03T12:36:30;8.20;27.40
67050;DHT22;53955;52.442;13.284;2023-04-03T12:39:10;8.40;28.10
67050;DHT22;53955;52.442;13.284;2023-04-03T12:41:46;8.30;28.40
67050;DHT22;53955;52.442;13.284;2023-04-03T12:44:27;8.10;27.60
67050;DHT22;53955;52.442;13.284;2023-04-03T12:47:14;7.90;28.70
67050;DHT22;53955;52.442;13.284;2023-04-03T12:49:43;7.90;27.80
67050;DHT22;53955;52.442;13.284;2023-04-03T12:52:19;7.70;28.50
67050;DHT22;53955;52.442;13.284;2023-04-03T12:54:48;7.90;29.00
67050;DHT22;53955;52.442;13.284;2023-04-03T12:57:21;7.70;28.80
67050;DHT22;53955;52.442;13.284;2023-04-03T12:59:48;7.70;28.80
67050;DHT22;53955;52.442;13.284;2023-04-03T13:02:23;7.50;28.20
67050;DHT22;53955;52.442;13.284;2023-04-03T13:04:51;7.50;27.70
67050;DHT22;53955;52.442;13.284;2023-04-03T13:07:23;7.70;27.30
67050;DHT22;53955;52.442;13.284;2023-04-03T13:09:59;7.80;26.80
67050;DHT22;53955;52.442;13.284;2023-04-03T13:12:26;7.80;26.50
67050;DHT22;53955;52.442;13.284;2023-04-03T13:14:54;7.90;26.40
67050;DHT22;53955;52.442;13.284;2023-04-03T13:17:21;8.00;26.30
67050;DHT22;53955;52.442;13.284;2023-04-03T13:19:48;8.20;26.50
67050;DHT22;53955;52.442;13.284;2023-04-03T13:22:26;8.00;26.90
67050;DHT22;53955;52.442;13.284;2023-04-03T13:24:54;8.20;27.00
67050;DHT22;53955;52.442;13.284;2023-04-03T13:27:23;8.30;26.50
67050;DHT22;53955;52.442;13.284;2023-04-03T13:29:52;8.10;26.90
67050;DHT22;53955;52.442;13.284;2023-04-03T13:32:22;8.10;26.70
67050;DHT22;53955;52.442;13.284;2023-04-03T13:34:50;8.20;27.00
67050;DHT22;53955;52.442;13.284;2023-04-03T13:37:22;8.10;28.00
67050;DHT22;53955;52.442;13.284;2023-04-03T13:40:00;8.00;28.20
67050;DHT22;53955;52.442;13.284;2023-04-03T13:42:30;8.10;28.60
67050;DHT22;53955;52.442;13.284;2023-04-03T13:45:20;8.00;27.60
67050;DHT22;53955;52.442;13.284;2023-04-03T13:47:51;8.00;28.60
67050;DHT22;53955;52.442;13.284;2023-04-03T13:50:22;8.00;28.90
67050;DHT22;53955;52.442;13.284;2023-04-03T13:52:53;8.00;29.10
67050;DHT22;53955;52.442;13.284;2023-04-03T13:55:23;8.20;29.20
67050;DHT22;53955;52.442;13.284;2023-04-03T13:57:54;8.20;28.90
67050;DHT22;53955;52.442;13.284;2023-04-03T14:00:29;8.00;29.20
67050;DHT22;53955;52.442;13.284;2023-04-03T14:02:57;7.90;28.70
67050;DHT22;53955;52.442;13.284;2023-04-03T14:05:24;7.90;28.50
67050;DHT22;53955;52.442;13.284;2023-04-03T14:07:52;7.90;29.10
67050;DHT22;53955;52.442;13.284;2023-04-03T14:10:19;7.80;29.50
67050;DHT22;53955;52.442;13.284;2023-04-03T14:12:46;7.80;28.80
67050;DHT22;53955;52.442;13.284;2023-04-03T14:15:20;7.70;28.80
67050;DHT22;53955;52.442;13.284;2023-04-03T14:17:49;7.60;28.50
67050;DHT22;53955;52.442;13.284;2023-04-03T14:20:20;7.60;29.00
67050;DHT22;53955;52.442;13.284;2023-04-03T14:22:47;7.60;29.10
67050;DHT22;53955;52.442;13.284;2023-04-03T14:25:14;7.40;29.50
67050;DHT22;53955;52.442;13.284;2023-04-03T14:27:43;7.50;29.90
67050;DHT22;53955;52.442;13.284;2023-04-03T14:30:14;7.60;29.80
67050;DHT22;53955;52.442;13.284;2023-04-03T14:32:43;7.80;29.60
67050;DHT22;53955;52.442;13.284;2023-04-03T14:35:10;7.70;29.40
67050;DHT22;53955;52.442;13.284;2023-04-03T14:37:37;7.70;29.70
67050;DHT22;53955;52.442;13.284;2023-04-03T14:40:06;7.70;29.80
67050;DHT22;53955;52.442;13.284;2023-04-03T14:42:35;7.60;29.80
67050;DHT22;53955;52.442;13.284;2023-04-03T14:45:04;7.60;30.00
67050;DHT22;53955;52.442;13.284;2023-04-03T14:47:32;7.70;29.40
67050;DHT22;53955;52.442;13.284;2023-04-03T14:50:01;7.60;29.20
67050;DHT22;53955;52.442;13.284;2023-04-03T14:52:30;7.70;28.70
67050;DHT22;53955;52.442;13.284;2023-04-03T14:54:58;7.70;28.50
67050;DHT22;53955;52.442;13.284;2023-04-03T14:57:27;7.90;27.80
67050;DHT22;53955;52.442;13.284;2023-04-03T14:59:54;7.90;28.10
67050;DHT22;53955;52.442;13.284;2023-04-03T15:02:26;8.10;27.40
67050;DHT22;53955;52.442;13.284;2023-04-03T15:04:53;8.00;27.60
67050;DHT22;53955;52.442;13.284;2023-04-03T15:07:21;8.00;27.50
67050;DHT22;53955;52.442;13.284;2023-04-03T15:09:49;8.00;27.90
67050;DHT22;53955;52.442;13.284;2023-04-03T15:12:16;8.00;29.10
67050;DHT22;53955;52.442;13.284;2023-04-03T15:14:42;7.90;28.20
67050;DHT22;53955;52.442;13.284;2023-04-03T15:17:14;7.90;28.90
67050;DHT22;53955;52.442;13.284;2023-04-03T15:19:41;7.90;29.50
67050;DHT22;53955;52.442;13.284;2023-04-03T15:22:10;7.70;30.30
67050;DHT22;53955;52.442;13.284;2023-04-03T15:24:41;7.60;30.70
67050;DHT22;53955;52.442;13.284;2023-04-03T15:27:08;7.50;30.70
67050;DHT22;53955;52.442;13.284;2023-04-03T15:29:34;7.60;31.60
67050;DHT22;53955;52.442;13.284;2023-04-03T15:32:01;7.60;31.70
67050;DHT22;53955;52.442;13.284;2023-04-03T15:34:28;7.50;32.80
67050;DHT22;53955;52.442;13.284;2023-04-03T15:36:54;7.60;32.20
67050;DHT22;53955;52.442;13.284;2023-04-03T15:39:21;7.50;33.00
67050;DHT22;53955;52.442;13.284;2023-04-03T15:41:50;7.40;33.50
67050;DHT22;53955;52.442;13.284;2023-04-03T15:44:18;7.30;33.20
67050;DHT22;53955;52.442;13.284;2023-04-03T15:46:45;7.30;33.50
67050;DHT22;53955;52.442;13.284;2023-04-03T15:49:12;7.40;33.80
67050;DHT22;53955;52.442;13.284;2023-04-03T15:51:38;7.10;33.80
67050;DHT22;53955;52.442;13.284;2023-04-03T15:54:05;7.20;34.00